createdAt,value
2022-10-11T00:00:54.236Z,9.70
2022-10-11T00:03:33.388Z,11.82
2022-10-11T00:06:11.650Z,13.40
2022-10-11T00:08:49.787Z,13.15
2022-10-11T00:11:28.018Z,12.88
2022-10-11T00:14:07.237Z,11.38
2022-10-11T00:16:45.955Z,11.27
2022-10-11T00:19:24.221Z,15.40
2022-10-11T00:22:02.392Z,13.27
2022-10-11T00:24:40.594Z,16.77
2022-10-11T00:27:19.350Z,13.85
2022-10-11T00:29:58.956Z,12.85
2022-10-11T00:32:38.376Z,13.15
2022-10-11T00:35:16.922Z,13.25
2022-10-11T00:37:57.205Z,17.60
2022-10-11T00:40:36.392Z,10.90
2022-10-11T00:43:20.191Z,11.63
2022-10-11T00:45:58.994Z,12.27
2022-10-11T00:48:56.280Z,11.63
2022-10-11T00:51:55.064Z,15.35
2022-10-11T00:54:36.353Z,11.38
2022-10-11T00:57:20.436Z,11.85
2022-10-11T01:00:00.475Z,11.52
2022-10-11T01:02:40.341Z,20.85
2022-10-11T01:05:29.657Z,14.18
2022-10-11T01:08:09.027Z,15.45
2022-10-11T01:10:47.038Z,17.75
2022-10-11T01:13:40.112Z,16.40
2022-10-11T01:16:40.608Z,18.02
2022-10-11T01:19:52.816Z,16.95
2022-10-11T01:23:04.285Z,17.75
2022-10-11T01:25:43.563Z,19.70
2022-10-11T01:28:43.455Z,18.67
2022-10-11T01:31:27.118Z,16.75
2022-10-11T01:34:32.135Z,12.00
2022-10-11T01:37:41.264Z,11.77
2022-10-11T01:40:33.300Z,16.92
2022-10-11T01:43:14.478Z,16.45
2022-10-11T01:45:54.833Z,13.77
2022-10-11T01:48:34.015Z,15.80
2022-10-11T01:51:12.107Z,19.30
2022-10-11T01:54:02.988Z,16.35
2022-10-11T01:56:50.279Z,20.08
2022-10-11T01:59:53.109Z,22.95
2022-10-11T02:02:58.631Z,26.92
2022-10-11T02:05:49.766Z,23.05
2022-10-11T02:09:08.181Z,20.35
2022-10-11T02:11:47.430Z,22.92
2022-10-11T02:14:31.810Z,20.90
2022-10-11T02:17:18.590Z,20.60
2022-10-11T02:19:57.722Z,26.02
2022-10-11T02:22:39.473Z,23.05
2022-10-11T02:25:25.261Z,26.58
2022-10-11T02:28:11.436Z,30.42
2022-10-11T02:30:52.181Z,25.35
2022-10-11T02:33:41.867Z,24.23
2022-10-11T02:36:33.068Z,24.20
2022-10-11T02:39:23.614Z,25.83
2022-10-11T02:42:06.822Z,29.27
2022-10-11T02:45:06.089Z,24.13
2022-10-11T02:47:45.523Z,27.42
2022-10-11T02:50:25.030Z,23.98
2022-10-11T02:53:04.959Z,21.23
2022-10-11T02:55:44.254Z,22.70
2022-10-11T02:58:24.377Z,17.60
2022-10-11T03:01:02.295Z,17.48
2022-10-11T03:03:52.347Z,16.45
2022-10-11T03:06:30.429Z,17.85
2022-10-11T03:09:08.833Z,17.98
2022-10-11T03:11:46.860Z,20.25
2022-10-11T03:14:25.289Z,18.90
2022-10-11T03:17:17.568Z,15.70
2022-10-11T03:20:02.259Z,15.25
2022-10-11T03:22:40.905Z,22.05
2022-10-11T03:25:18.767Z,17.25
2022-10-11T03:27:56.887Z,20.13
2022-10-11T03:30:35.087Z,17.95
2022-10-11T03:33:13.293Z,16.38
2022-10-11T03:35:51.503Z,29.13
2022-10-11T03:38:29.770Z,14.75
2022-10-11T03:41:07.953Z,18.05
2022-10-11T03:43:46.117Z,17.08
2022-10-11T03:46:25.334Z,18.05
2022-10-11T03:49:04.127Z,18.35
2022-10-11T03:51:42.348Z,15.13
2022-10-11T03:54:20.516Z,19.10
2022-10-11T03:56:58.752Z,21.13
2022-10-11T03:59:36.955Z,25.38
2022-10-11T04:02:15.374Z,18.95
2022-10-11T04:04:54.342Z,19.83
2022-10-11T04:07:33.838Z,20.15
2022-10-11T04:10:13.013Z,18.45
2022-10-11T04:12:51.154Z,19.70
2022-10-11T04:15:29.541Z,19.42
2022-10-11T04:18:08.146Z,21.50
2022-10-11T04:20:47.542Z,19.13
2022-10-11T04:23:25.596Z,20.90
2022-10-11T04:26:08.159Z,18.38
2022-10-11T04:28:46.985Z,18.77
2022-10-11T04:31:25.214Z,21.40
2022-10-11T04:34:03.228Z,16.73
2022-10-11T04:36:41.391Z,21.65
2022-10-11T04:39:19.688Z,19.08
2022-10-11T04:41:57.786Z,19.80
2022-10-11T04:44:37.193Z,19.98
2022-10-11T04:47:15.758Z,22.98
2022-10-11T04:49:54.061Z,26.63
2022-10-11T04:52:32.320Z,29.02
2022-10-11T04:55:11.544Z,22.10
2022-10-11T04:57:50.266Z,22.88
2022-10-11T05:00:28.611Z,21.25
2022-10-11T05:03:06.645Z,21.95
2022-10-11T05:05:45.113Z,31.30
2022-10-11T05:08:23.497Z,26.13
2022-10-11T05:11:15.615Z,30.42
2022-10-11T05:13:53.850Z,26.52
2022-10-11T05:16:32.142Z,26.50
2022-10-11T05:19:10.589Z,26.65
2022-10-11T05:21:48.620Z,23.90
2022-10-11T05:24:26.717Z,25.13
2022-10-11T05:27:04.851Z,28.27
2022-10-11T05:29:43.144Z,23.92
2022-10-11T05:32:21.391Z,23.70
2022-10-11T05:34:59.510Z,24.48
2022-10-11T05:37:37.757Z,25.13
2022-10-11T05:40:16.025Z,22.33
2022-10-11T05:42:54.149Z,22.70
2022-10-11T05:45:35.235Z,20.02
2022-10-11T05:48:26.928Z,18.75
2022-10-11T05:51:07.579Z,24.25
2022-10-11T05:53:46.974Z,21.02
2022-10-11T05:56:26.386Z,23.02
2022-10-11T05:59:05.081Z,23.52
2022-10-11T06:01:43.004Z,26.15
2022-10-11T06:04:21.121Z,27.08
2022-10-11T06:06:59.309Z,23.65
2022-10-11T06:09:37.637Z,24.83
2022-10-11T06:12:15.876Z,27.40
2022-10-11T06:15:11.663Z,24.83
2022-10-11T06:18:03.532Z,30.67
2022-10-11T06:21:00.533Z,24.67
2022-10-11T06:24:01.343Z,23.38
2022-10-11T06:26:57.596Z,26.05
2022-10-11T06:29:53.562Z,23.95
2022-10-11T06:32:49.224Z,20.67
2022-10-11T06:35:41.547Z,25.02
2022-10-11T06:38:42.346Z,26.00
2022-10-11T06:41:36.438Z,29.40
2022-10-11T06:44:34.923Z,25.58
2022-10-11T06:47:26.314Z,28.75
2022-10-11T06:50:40.748Z,27.58
2022-10-11T06:53:44.155Z,30.42
2022-10-11T06:56:36.429Z,32.45
2022-10-11T06:59:32.372Z,30.13
2022-10-11T07:02:24.525Z,31.63
2022-10-11T07:05:23.040Z,26.77
2022-10-11T07:08:17.403Z,31.85
2022-10-11T07:11:11.339Z,28.40
2022-10-11T07:14:08.126Z,27.55
2022-10-11T07:17:06.407Z,33.35
2022-10-11T07:20:14.372Z,30.08
2022-10-11T07:23:10.020Z,24.33
2022-10-11T07:26:02.576Z,22.17
2022-10-11T07:28:57.621Z,22.45
2022-10-11T07:32:09.243Z,29.10
2022-10-11T07:35:00.888Z,22.58
2022-10-11T07:38:08.813Z,22.52
2022-10-11T07:41:05.451Z,23.70
2022-10-11T07:44:09.882Z,23.33
2022-10-11T07:47:10.305Z,22.92
2022-10-11T07:50:07.352Z,17.75
2022-10-11T07:53:06.457Z,20.90
2022-10-11T07:56:02.756Z,27.33
2022-10-11T07:58:59.645Z,21.38
2022-10-11T08:01:51.930Z,21.73
2022-10-11T08:04:53.330Z,24.08
2022-10-11T08:07:48.945Z,19.73
2022-10-11T08:10:44.623Z,21.63
2022-10-11T08:13:40.268Z,24.70
2022-10-11T08:16:32.559Z,21.40
2022-10-11T08:19:28.702Z,19.00
2022-10-11T08:22:24.661Z,18.95
2022-10-11T08:25:16.752Z,18.25
2022-10-11T08:28:24.496Z,18.75
2022-10-11T08:31:26.276Z,19.45
2022-10-11T08:34:22.032Z,15.80
2022-10-11T08:37:14.493Z,18.67
2022-10-11T08:40:07.620Z,18.70
2022-10-11T08:43:13.643Z,14.10
2022-10-11T08:46:14.701Z,16.95
2022-10-11T08:49:09.814Z,15.98
2022-10-11T08:52:04.752Z,19.40
2022-10-11T08:55:05.625Z,20.10
2022-10-11T08:57:59.034Z,22.38
2022-10-11T09:00:58.022Z,19.40
2022-10-11T09:03:41.373Z,19.00
2022-10-11T09:06:49.385Z,15.45
2022-10-11T09:09:56.155Z,19.20
2022-10-11T09:13:02.577Z,17.13
2022-10-11T09:15:47.302Z,15.40
2022-10-11T09:18:52.313Z,18.23
2022-10-11T09:21:36.111Z,17.05
2022-10-11T09:24:03.339Z,19.40
2022-10-11T09:26:59.521Z,15.23
2022-10-11T09:29:43.476Z,18.05
2022-10-11T09:32:17.106Z,14.27
2022-10-11T09:34:44.473Z,17.33
2022-10-11T09:37:32.986Z,16.90
2022-10-11T09:40:21.040Z,17.50
2022-10-11T09:42:48.282Z,15.15
2022-10-11T09:45:19.652Z,16.88
2022-10-11T09:47:48.374Z,15.57
2022-10-11T09:50:30.748Z,12.75
2022-10-11T09:53:01.978Z,17.63
2022-10-11T09:55:53.471Z,14.77
2022-10-11T09:58:31.193Z,18.83
2022-10-11T10:01:10.084Z,13.18
2022-10-11T10:03:42.766Z,14.52
2022-10-11T10:06:27.641Z,14.95
2022-10-11T10:08:55.946Z,14.85
2022-10-11T10:11:23.156Z,12.27
2022-10-11T10:13:56.119Z,15.70
2022-10-11T10:16:32.308Z,13.95
2022-10-11T10:19:15.994Z,17.13
2022-10-11T10:21:49.661Z,15.13
2022-10-11T10:24:39.376Z,12.32
2022-10-11T10:27:23.204Z,14.30
2022-10-11T10:30:01.025Z,16.48
2022-10-11T10:32:48.613Z,15.77
2022-10-11T10:35:37.483Z,13.57
2022-10-11T10:38:10.491Z,13.48
2022-10-11T10:40:56.647Z,14.82
2022-10-11T10:43:27.832Z,11.25
2022-10-11T10:46:18.228Z,13.60
2022-10-11T10:49:52.043Z,14.50
2022-10-11T10:52:46.039Z,12.50
2022-10-11T10:55:25.406Z,14.43
2022-10-11T10:58:24.621Z,16.17
2022-10-11T11:01:20.999Z,15.32
2022-10-11T11:04:19.224Z,11.48
2022-10-11T11:06:54.940Z,13.07
2022-10-11T11:09:28.710Z,13.98
2022-10-11T11:12:10.542Z,12.60
2022-10-11T11:14:55.951Z,16.20
2022-10-11T11:17:51.001Z,13.13
2022-10-11T11:20:41.419Z,11.63
2022-10-11T11:23:31.585Z,15.18
2022-10-11T11:26:10.393Z,13.55
2022-10-11T11:29:08.683Z,28.13
2022-10-11T11:32:20.459Z,15.23
2022-10-11T11:34:58.466Z,11.30
2022-10-11T11:37:32.160Z,16.33
2022-10-11T11:40:03.178Z,13.68
2022-10-11T11:42:42.291Z,15.33
2022-10-11T11:45:44.339Z,12.95
2022-10-11T11:48:19.737Z,9.80
2022-10-11T11:51:03.826Z,16.08
2022-10-11T11:53:51.588Z,10.73
2022-10-11T11:56:49.766Z,10.75
2022-10-11T11:59:43.510Z,14.70
2022-10-11T12:02:35.320Z,12.68
2022-10-11T12:05:02.863Z,10.95
2022-10-11T12:07:30.324Z,14.13
2022-10-11T12:10:31.108Z,12.30
2022-10-11T12:13:10.374Z,9.77
2022-10-11T12:15:37.797Z,13.05
2022-10-11T12:18:14.728Z,13.82
2022-10-11T12:20:43.476Z,8.68
2022-10-11T12:23:29.058Z,16.42
2022-10-11T12:26:18.276Z,16.58
2022-10-11T12:29:00.547Z,11.43
2022-10-11T12:31:32.445Z,11.52
2022-10-11T12:34:16.438Z,10.73
2022-10-11T12:36:51.031Z,14.38
2022-10-11T12:39:21.075Z,10.95
2022-10-11T12:41:51.065Z,12.93
2022-10-11T12:44:29.011Z,13.18
2022-10-11T12:46:58.930Z,11.93
2022-10-11T12:49:29.183Z,11.68
2022-10-11T12:52:18.224Z,11.68
2022-10-11T12:55:24.298Z,12.90
2022-10-11T12:58:38.893Z,14.43
2022-10-11T13:01:11.783Z,17.23
2022-10-11T13:03:47.132Z,13.40
2022-10-11T13:06:33.742Z,13.10
2022-10-11T13:09:10.210Z,12.38
2022-10-11T13:11:47.208Z,13.88
2022-10-11T13:14:21.358Z,9.95
2022-10-11T13:17:02.718Z,16.70
2022-10-11T13:19:32.221Z,15.23
2022-10-11T13:22:03.168Z,17.23
2022-10-11T13:24:38.675Z,16.38
2022-10-11T13:27:07.673Z,19.23
2022-10-11T13:29:45.567Z,13.35
2022-10-11T13:32:25.193Z,12.43
2022-10-11T13:35:05.990Z,12.95
2022-10-11T13:37:44.342Z,13.38
2022-10-11T13:40:16.956Z,15.07
2022-10-11T13:42:45.083Z,12.98
2022-10-11T13:45:23.141Z,10.32
2022-10-11T13:47:52.257Z,13.52
2022-10-11T13:50:33.687Z,17.70
2022-10-11T13:53:10.011Z,15.45
2022-10-11T13:55:57.218Z,16.13
2022-10-11T13:58:34.338Z,18.65
2022-10-11T14:01:29.142Z,16.63
2022-10-11T14:04:05.048Z,13.43
2022-10-11T14:06:47.634Z,10.95
2022-10-11T14:09:26.284Z,15.23
2022-10-11T14:11:55.055Z,13.38
2022-10-11T14:14:34.382Z,11.27
2022-10-11T14:17:10.229Z,13.73
2022-10-11T14:19:38.222Z,14.93
2022-10-11T14:22:07.433Z,11.93
2022-10-11T14:24:34.730Z,12.98
2022-10-11T14:27:05.967Z,13.77
2022-10-11T14:29:36.094Z,15.43
2022-10-11T14:32:10.756Z,14.23
2022-10-11T14:34:38.329Z,13.45
2022-10-11T14:37:05.716Z,11.35
2022-10-11T14:39:33.709Z,14.63
2022-10-11T14:42:01.036Z,11.88
2022-10-11T14:44:28.592Z,11.10
2022-10-11T14:46:55.887Z,14.40
2022-10-11T14:49:27.233Z,11.75
2022-10-11T14:51:56.199Z,12.73
2022-10-11T14:54:25.583Z,10.63
2022-10-11T14:56:56.252Z,20.40
2022-10-11T14:59:26.555Z,10.70
2022-10-11T15:01:54.397Z,9.80
2022-10-11T15:04:23.708Z,13.68
2022-10-11T15:06:52.403Z,11.10
2022-10-11T15:09:23.476Z,9.25
2022-10-11T15:11:52.003Z,12.65
2022-10-11T15:14:19.255Z,13.15
2022-10-11T15:16:46.653Z,15.50
2022-10-11T15:19:19.660Z,13.32
2022-10-11T15:21:47.502Z,12.00
2022-10-11T15:24:15.462Z,14.70
2022-10-11T15:26:42.828Z,11.65
2022-10-11T15:29:12.131Z,11.20
2022-10-11T15:31:39.857Z,13.32
2022-10-11T15:34:07.418Z,12.30
2022-10-11T15:36:34.781Z,20.02
2022-10-11T15:39:01.976Z,13.50
2022-10-11T15:41:29.616Z,11.70
2022-10-11T15:43:56.911Z,19.92
2022-10-11T15:46:24.319Z,12.73
2022-10-11T15:48:52.393Z,11.73
2022-10-11T15:51:19.871Z,18.17
2022-10-11T15:53:47.321Z,16.05
2022-10-11T15:56:18.774Z,17.20
2022-10-11T15:58:46.779Z,12.48
2022-10-11T16:01:19.674Z,15.45
2022-10-11T16:03:49.205Z,21.92
2022-10-11T16:06:17.316Z,18.65
2022-10-11T16:08:44.777Z,15.65
2022-10-11T16:11:12.742Z,19.90
2022-10-11T16:13:40.557Z,13.40
2022-10-11T16:16:09.781Z,11.57
2022-10-11T16:18:37.842Z,12.43
2022-10-11T16:21:10.940Z,18.33
2022-10-11T16:23:39.078Z,14.20
2022-10-11T16:26:10.025Z,16.67
2022-10-11T16:28:38.118Z,13.48
2022-10-11T16:31:10.466Z,17.75
2022-10-11T16:33:46.124Z,22.73
2022-10-11T16:36:34.892Z,20.20
2022-10-11T16:39:06.988Z,14.88
2022-10-11T16:41:34.282Z,12.65
2022-10-11T16:44:01.548Z,15.63
2022-10-11T16:46:28.844Z,14.93
2022-10-11T16:48:56.330Z,16.23
2022-10-11T16:51:24.431Z,15.63
2022-10-11T16:53:53.244Z,15.68
2022-10-11T16:56:22.735Z,13.90
2022-10-11T16:58:50.583Z,18.60
2022-10-11T17:01:17.935Z,15.32
2022-10-11T17:03:45.318Z,20.95
2022-10-11T17:06:12.710Z,13.40
2022-10-11T17:08:40.061Z,14.93
2022-10-11T17:11:07.405Z,15.60
2022-10-11T17:13:34.779Z,18.65
2022-10-11T17:16:02.452Z,16.08
2022-10-11T17:18:31.721Z,14.88
2022-10-11T17:21:04.228Z,14.77
2022-10-11T17:23:31.637Z,14.20
2022-10-11T17:26:01.587Z,13.57
2022-10-11T17:28:31.134Z,16.42
2022-10-11T17:30:58.700Z,15.45
2022-10-11T17:33:26.838Z,19.25
2022-10-11T17:35:55.199Z,14.90
2022-10-11T17:38:26.621Z,17.50
2022-10-11T17:41:01.514Z,14.98
2022-10-11T17:43:29.023Z,22.67
2022-10-11T17:46:01.507Z,20.00
2022-10-11T17:48:29.341Z,17.00
2022-10-11T17:50:56.729Z,15.20
2022-10-11T17:53:24.104Z,13.30
2022-10-11T17:55:53.484Z,12.68
2022-10-11T17:58:20.673Z,23.77
2022-10-11T18:00:47.997Z,22.23
2022-10-11T18:03:15.291Z,21.83
2022-10-11T18:05:42.550Z,21.90
2022-10-11T18:08:11.190Z,26.70
2022-10-11T18:10:38.661Z,20.92
2022-10-11T18:13:06.962Z,20.38
2022-10-11T18:15:35.185Z,17.98
2022-10-11T18:18:04.971Z,17.63
2022-10-11T18:20:32.401Z,21.23
2022-10-11T18:23:00.416Z,21.83
2022-10-11T18:25:27.669Z,25.10
2022-10-11T18:27:54.900Z,19.02
2022-10-11T18:30:22.292Z,19.95
2022-10-11T18:32:49.507Z,22.65
2022-10-11T18:35:16.885Z,24.95
2022-10-11T18:37:44.118Z,16.25
2022-10-11T18:40:11.606Z,19.50
2022-10-11T18:42:38.867Z,16.40
2022-10-11T18:45:06.869Z,21.17
2022-10-11T18:47:34.081Z,18.75
2022-10-11T18:50:01.340Z,17.80
2022-10-11T18:52:28.562Z,14.95
2022-10-11T18:54:55.920Z,19.63
2022-10-11T18:57:24.432Z,22.40
2022-10-11T18:59:52.612Z,24.38
2022-10-11T19:02:19.870Z,25.83
2022-10-11T19:04:52.585Z,18.52
2022-10-11T19:07:20.266Z,17.52
2022-10-11T19:09:47.561Z,16.30
2022-10-11T19:12:15.621Z,16.52
2022-10-11T19:14:42.972Z,17.98
2022-10-11T19:17:12.426Z,13.50
2022-10-11T19:19:39.755Z,17.02
2022-10-11T19:22:07.044Z,15.57
2022-10-11T19:24:34.311Z,15.75
2022-10-11T19:27:03.090Z,21.02
2022-10-11T19:29:30.670Z,18.15
2022-10-11T19:32:01.002Z,24.70
2022-10-11T19:34:28.798Z,16.20
2022-10-11T19:36:57.119Z,20.67
2022-10-11T19:39:25.641Z,17.25
2022-10-11T19:41:53.010Z,24.00
2022-10-11T19:44:20.758Z,22.90
2022-10-11T19:46:52.394Z,19.08
2022-10-11T19:49:22.802Z,18.70
2022-10-11T19:51:50.461Z,16.50
2022-10-11T19:54:17.893Z,22.65
2022-10-11T19:56:45.235Z,19.65
2022-10-11T19:59:13.043Z,16.60
2022-10-11T20:01:41.451Z,17.83
2022-10-11T20:04:27.480Z,21.13
2022-10-11T20:06:59.029Z,21.50
2022-10-11T20:09:30.802Z,18.80
2022-10-11T20:11:58.848Z,15.65
2022-10-11T20:14:26.343Z,17.15
2022-10-11T20:16:53.850Z,16.33
2022-10-11T20:19:26.347Z,17.55
2022-10-11T20:21:55.177Z,16.35
2022-10-11T20:24:22.728Z,16.00
2022-10-11T20:26:49.898Z,31.20
2022-10-11T20:29:17.158Z,28.33
2022-10-11T20:31:44.439Z,54.65
2022-10-11T20:34:12.067Z,26.83
2022-10-11T20:36:39.480Z,20.67
2022-10-11T20:39:06.932Z,19.70
2022-10-11T20:41:37.313Z,16.38
2022-10-11T20:44:05.414Z,14.82
2022-10-11T20:46:35.270Z,14.40
2022-10-11T20:49:05.669Z,18.98
2022-10-11T20:51:35.268Z,19.10
2022-10-11T20:54:04.327Z,17.45
2022-10-11T20:56:32.214Z,16.67
2022-10-11T20:58:59.968Z,20.10
2022-10-11T21:01:32.895Z,22.17
2022-10-11T21:04:01.531Z,17.85
2022-10-11T21:06:30.231Z,16.75
2022-10-11T21:08:59.226Z,21.08
2022-10-11T21:11:27.438Z,16.70
2022-10-11T21:13:59.768Z,20.95
2022-10-11T21:16:27.480Z,19.33
2022-10-11T21:18:56.825Z,18.55
2022-10-11T21:21:25.019Z,18.02
2022-10-11T21:23:56.191Z,18.45
2022-10-11T21:26:23.783Z,17.17
2022-10-11T21:28:51.981Z,18.65
2022-10-11T21:31:20.856Z,16.65
2022-10-11T21:33:48.880Z,17.88
2022-10-11T21:36:21.408Z,16.70
2022-10-11T21:38:49.966Z,15.25
2022-10-11T21:41:20.166Z,17.48
2022-10-11T21:43:47.963Z,16.40
2022-10-11T21:46:18.777Z,14.88
2022-10-11T21:48:46.532Z,15.05
2022-10-11T21:51:30.183Z,21.27
2022-10-11T21:54:00.441Z,16.10
2022-10-11T21:56:28.501Z,23.70
2022-10-11T21:58:56.163Z,22.88
2022-10-11T22:01:24.036Z,15.35
2022-10-11T22:03:53.503Z,19.85
2022-10-11T22:06:21.483Z,21.15
2022-10-11T22:08:50.122Z,18.40
2022-10-11T22:11:17.654Z,16.27
2022-10-11T22:13:45.609Z,18.42
2022-10-11T22:16:13.958Z,19.60
2022-10-11T22:18:42.199Z,17.67
2022-10-11T22:21:16.023Z,15.93
2022-10-11T22:23:45.896Z,16.33
2022-10-11T22:26:25.705Z,17.85
2022-10-11T22:28:53.548Z,17.48
2022-10-11T22:31:21.843Z,18.25
2022-10-11T22:33:53.368Z,20.60
2022-10-11T22:36:20.803Z,18.13
2022-10-11T22:38:48.416Z,20.75
2022-10-11T22:41:15.822Z,20.55
2022-10-11T22:43:43.450Z,22.10
2022-10-11T22:46:11.004Z,19.80
2022-10-11T22:48:38.413Z,17.67
2022-10-11T22:51:06.121Z,18.35
2022-10-11T22:53:33.776Z,19.42
2022-10-11T22:56:01.078Z,21.15
2022-10-11T22:58:28.579Z,22.65
2022-10-11T23:00:55.793Z,18.58
2022-10-11T23:03:23.186Z,18.08
2022-10-11T23:05:57.878Z,18.48
2022-10-11T23:08:25.985Z,30.15
2022-10-11T23:10:53.570Z,17.92
2022-10-11T23:13:21.166Z,24.08
2022-10-11T23:15:48.720Z,21.08
2022-10-11T23:18:16.574Z,25.13
2022-10-11T23:20:44.121Z,21.65
2022-10-11T23:23:11.379Z,23.70
2022-10-11T23:25:38.679Z,21.95
2022-10-11T23:28:06.344Z,24.15
2022-10-11T23:30:33.710Z,26.42
2022-10-11T23:33:00.909Z,22.88
2022-10-11T23:35:28.192Z,26.63
2022-10-11T23:37:55.454Z,24.30
2022-10-11T23:40:22.684Z,28.25
2022-10-11T23:42:49.914Z,28.58
2022-10-11T23:45:17.206Z,25.92
2022-10-11T23:47:44.471Z,25.60
2022-10-11T23:50:11.823Z,34.55
2022-10-11T23:52:39.049Z,27.27
2022-10-11T23:55:06.683Z,25.17
2022-10-11T23:57:34.150Z,26.90
